This is the latest recevied weather packets stored in our database for station/object AG1T-20. If no packets are shown the sender has not sent any weather packets the latest 10 day(s).
| Time | Temp. | Humidity | Pressure | Rain* | Wind** | Luminosity | Snow |
|---|---|---|---|---|---|---|---|
| 1777779005 | 12.78° C | 39% | 1018.7 hPa | 0 mm | - | 0 W/m² | - |
| 1777778405 | 12.22° C | 43% | 1018.7 hPa | 0 mm | - | 0 W/m² | - |
| 1777777805 | 13.33° C | 39% | 1018.7 hPa | 0 mm | - | 0 W/m² | - |
| 1777777205 | 13.89° C | 39% | 1018.7 hPa | 0 mm | - | 0 W/m² | - |
| 1777776605 | 13.89° C | 41% | 1018.7 hPa | 0 mm | - | 0 W/m² | - |
| 1777776005 | 16.11° C | 33% | 1018.7 hPa | 0 mm | - | 0 W/m² | - |
| 1777775405 | 15.56° C | 34% | 1018.7 hPa | 0 mm | - | 1 W/m² | - |
| 1777774805 | 16.11° C | 29% | 1018.7 hPa | 0 mm | - | 4 W/m² | - |
| 1777774205 | 17.78° C | 27% | 1018.7 hPa | 0 mm | - | 16 W/m² | - |
| 1777773605 | 18.89° C | 27% | 1018.7 hPa | 0 mm | - | 31 W/m² | - |
| 1777773005 | 19.44° C | 25% | 1018.7 hPa | 0 mm | - | 39 W/m² | - |
| 1777772405 | 20° C | 24% | 1018.7 hPa | 0 mm | - | 56 W/m² | - |
| 1777771805 | 20.56° C | 24% | 1018.7 hPa | 0 mm | - | 71 W/m² | - |
| 1777771205 | 18.89° C | 23% | 1018.7 hPa | 0 mm | - | 76 W/m² | - |
| 1777770605 | 19.44° C | 26% | 1018.7 hPa | 0 mm | - | 84 W/m² | - |
| 1777770005 | 19.44° C | 24% | 1018.7 hPa | 0 mm | - | 95 W/m² | - |
| 1777769405 | 20° C | 24% | 1019.1 hPa | 0 mm | - | 98 W/m² | - |
| 1777768805 | 20.56° C | 21% | 1019.1 hPa | 0 mm | - | 94 W/m² | - |
| 1777768205 | 20.56° C | 19% | 1019.1 hPa | 0 mm | - | 86 W/m² | - |
| 1777767605 | 21.11° C | 18% | 1019.1 hPa | 0 mm | - | 94 W/m² | - |
| 1777767005 | 20.56° C | 19% | 1019.1 hPa | 0 mm | - | 94 W/m² | - |
| 1777766405 | 20.56° C | 19% | 1019.1 hPa | 0 mm | - | 129 W/m² | - |
| 1777765805 | 21.11° C | 21% | 1019.4 hPa | 0 mm | - | 152 W/m² | - |
| 1777765205 | 22.22° C | 16% | 1019.4 hPa | 0 mm | - | 178 W/m² | - |
| 1777764605 | 22.78° C | 18% | 1019.4 hPa | 0 mm | - | 218 W/m² | - |
* Rain latest hour (hover to see other rain measurements)
** Current wind speed in m/s (hover to see current wind gust speed)